createdAt,value
2019-01-05T00:00:29.796Z,27.73
2019-01-05T00:03:11.999Z,28.37
2019-01-05T00:06:00.976Z,22.70
2019-01-05T00:08:51.135Z,29.87
2019-01-05T00:11:46.888Z,22.80
2019-01-05T00:14:39.524Z,30.53
2019-01-05T00:17:28.796Z,30.57
2019-01-05T00:20:18.247Z,26.47
2019-01-05T00:23:18.379Z,26.10
2019-01-05T00:26:07.739Z,22.93
2019-01-05T00:28:58.059Z,22.33
2019-01-05T00:31:46.898Z,26.43
2019-01-05T00:34:45.599Z,22.00
2019-01-05T00:37:38.848Z,24.73
2019-01-05T00:40:30.778Z,23.40
2019-01-05T00:43:19.836Z,21.23
2019-01-05T00:46:10.456Z,22.30
2019-01-05T00:48:59.918Z,19.97
2019-01-05T00:51:51.076Z,18.87
2019-01-05T00:54:40.816Z,17.73
2019-01-05T00:57:37.858Z,19.80
2019-01-05T01:00:36.239Z,16.63
2019-01-05T01:03:28.796Z,15.20
2019-01-05T01:06:17.758Z,15.27
2019-01-05T01:09:07.846Z,14.93
2019-01-05T01:11:50.656Z,15.53
2019-01-05T01:14:40.417Z,16.80
2019-01-05T01:17:30.816Z,15.23
2019-01-05T01:20:20.917Z,15.73
2019-01-05T01:23:10.076Z,16.07
2019-01-05T01:25:59.757Z,17.33
2019-01-05T01:28:49.418Z,13.17
2019-01-05T01:31:39.076Z,14.50
2019-01-05T01:34:28.566Z,16.53
2019-01-05T01:37:18.878Z,13.47
2019-01-05T01:40:10.376Z,17.13
2019-01-05T01:42:54.957Z,11.10
2019-01-05T01:45:46.879Z,10.97
2019-01-05T01:48:37.997Z,9.37
2019-01-05T01:51:27.765Z,10.83
2019-01-05T01:54:17.746Z,12.47
2019-01-05T01:57:09.667Z,12.37
2019-01-05T01:59:59.456Z,10.87
2019-01-05T02:02:49.856Z,13.43
2019-01-05T02:05:40.976Z,11.33
2019-01-05T02:08:31.576Z,12.03
2019-01-05T02:11:22.476Z,11.67
2019-01-05T02:14:12.337Z,11.97
2019-01-05T02:17:06.426Z,12.43
2019-01-05T02:20:05.749Z,11.13
2019-01-05T02:23:08.216Z,11.27
2019-01-05T02:26:04.746Z,9.23
2019-01-05T02:29:12.446Z,9.70
2019-01-05T02:32:20.980Z,12.10
2019-01-05T02:35:31.041Z,11.10
2019-01-05T02:38:39.877Z,11.90
2019-01-05T02:41:45.397Z,13.10
2019-01-05T02:44:54.007Z,10.07
2019-01-05T02:47:58.977Z,13.90
2019-01-05T02:51:05.039Z,11.90
2019-01-05T02:54:12.716Z,13.07
2019-01-05T02:57:17.756Z,12.13
2019-01-05T03:00:20.973Z,11.27
2019-01-05T03:03:21.896Z,12.00
2019-01-05T03:06:29.576Z,11.43
2019-01-05T03:09:29.825Z,11.43
2019-01-05T03:12:37.917Z,9.97
2019-01-05T03:15:30.879Z,13.70
2019-01-05T03:18:31.708Z,11.97
2019-01-05T03:21:37.276Z,12.07
2019-01-05T03:24:56.736Z,11.83
2019-01-05T03:28:04.328Z,13.93
2019-01-05T03:31:11.849Z,14.77
2019-01-05T03:34:18.296Z,12.23
2019-01-05T03:37:25.798Z,13.60
2019-01-05T03:40:25.817Z,12.63
2019-01-05T03:43:29.077Z,16.67
2019-01-05T03:46:26.576Z,17.40
2019-01-05T03:49:34.276Z,16.60
2019-01-05T03:52:41.776Z,13.33
2019-01-05T03:55:49.478Z,16.57
2019-01-05T03:58:57.256Z,13.60
2019-01-05T04:02:04.777Z,13.90
2019-01-05T04:05:12.068Z,12.80
2019-01-05T04:08:14.931Z,13.20
2019-01-05T04:11:22.426Z,12.70
2019-01-05T04:14:17.756Z,12.33
2019-01-05T04:17:28.625Z,13.37
2019-01-05T04:20:37.338Z,15.10
2019-01-05T04:23:44.827Z,13.30
2019-01-05T04:26:55.216Z,10.93
2019-01-05T04:30:00.956Z,17.77
2019-01-05T04:46:35.966Z,10.67
2019-01-05T04:49:38.877Z,12.93
2019-01-05T04:52:32.337Z,11.57
2019-01-05T05:00:01.777Z,11.20
2019-01-05T05:05:44.736Z,10.43
2019-01-05T05:12:38.077Z,11.27
2019-01-05T05:19:12.100Z,13.70
2019-01-05T05:22:20.658Z,12.80
2019-01-05T05:25:28.068Z,15.23
2019-01-05T05:28:26.518Z,15.50
2019-01-05T05:31:27.977Z,16.40
2019-01-05T05:34:25.960Z,15.83
2019-01-05T05:37:38.256Z,15.53
2019-01-05T05:40:48.849Z,16.50
2019-01-05T05:47:28.008Z,16.00
2019-01-05T05:53:40.937Z,15.73
2019-01-05T05:56:35.718Z,14.70
2019-01-05T05:59:40.676Z,15.13
2019-01-05T06:02:38.836Z,16.73
2019-01-05T06:05:49.626Z,12.70
2019-01-05T06:08:57.396Z,11.50
2019-01-05T06:12:00.820Z,13.63
2019-01-05T06:15:00.407Z,12.60
2019-01-05T06:18:08.419Z,20.97
2019-01-05T06:21:15.929Z,14.37
2019-01-05T06:24:24.736Z,22.93
2019-01-05T06:27:32.765Z,17.80
2019-01-05T06:30:40.886Z,15.73
2019-01-05T06:33:50.616Z,19.27
2019-01-05T06:36:49.817Z,20.73
2019-01-05T06:39:57.505Z,22.37
2019-01-05T06:43:05.235Z,27.37
2019-01-05T06:46:10.266Z,22.57
2019-01-05T06:49:19.118Z,23.23
2019-01-05T06:52:27.390Z,19.93
2019-01-05T06:55:38.258Z,20.53
2019-01-05T06:58:41.988Z,20.50
2019-01-05T07:01:48.845Z,19.33
2019-01-05T07:04:57.266Z,23.87
2019-01-05T07:08:15.518Z,17.10
2019-01-05T07:11:27.379Z,21.17
2019-01-05T07:14:37.778Z,18.83
2019-01-05T07:17:45.066Z,15.80
2019-01-05T07:24:05.379Z,18.60
2019-01-05T07:27:12.960Z,14.73
2019-01-05T07:30:20.460Z,14.00
2019-01-05T07:33:19.459Z,9.07
2019-01-05T07:36:17.727Z,9.50
2019-01-05T07:39:24.199Z,11.40
2019-01-05T07:42:30.780Z,15.63
2019-01-05T07:45:38.275Z,21.33
2019-01-05T07:48:47.012Z,15.47
2019-01-05T07:51:54.591Z,12.60
2019-01-05T07:55:02.092Z,16.43
2019-01-05T07:58:09.811Z,18.13
2019-01-05T08:01:17.500Z,25.43
2019-01-05T08:04:25.109Z,39.30
2019-01-05T08:07:32.584Z,22.60
2019-01-05T08:10:40.093Z,20.60
2019-01-05T08:13:47.791Z,18.93
2019-01-05T08:16:55.373Z,19.93
2019-01-05T08:20:02.999Z,23.17
2019-01-05T08:23:08.819Z,15.93
2019-01-05T08:26:16.531Z,18.00
2019-01-05T08:29:23.432Z,16.10
2019-01-05T08:32:30.800Z,15.83
2019-01-05T08:35:35.219Z,16.70
2019-01-05T08:38:43.131Z,17.73
2019-01-05T08:41:40.311Z,23.77
2019-01-05T08:44:48.019Z,20.60
2019-01-05T08:47:44.419Z,15.67
2019-01-05T08:50:53.771Z,22.60
2019-01-05T08:53:58.911Z,18.00
2019-01-05T08:57:07.031Z,21.27
2019-01-05T09:00:11.979Z,29.13
2019-01-05T09:03:19.880Z,24.77
2019-01-05T09:06:22.051Z,23.67
2019-01-05T09:09:29.837Z,25.90
2019-01-05T09:12:37.412Z,24.10
2019-01-05T09:15:45.239Z,22.83
2019-01-05T09:18:52.933Z,25.80
2019-01-05T09:22:01.451Z,25.33
2019-01-05T09:25:10.172Z,27.83
2019-01-05T09:28:18.091Z,32.43
2019-01-05T09:31:23.412Z,22.73
2019-01-05T09:34:32.064Z,23.30
2019-01-05T09:37:36.499Z,32.27
2019-01-05T09:40:44.079Z,21.10
2019-01-05T09:43:51.872Z,19.77
2019-01-05T09:46:59.799Z,30.90
2019-01-05T09:50:08.001Z,21.07
2019-01-05T09:53:14.439Z,21.63
2019-01-05T09:56:22.441Z,23.47
2019-01-05T09:59:31.591Z,15.00
2019-01-05T10:02:34.767Z,17.17
2019-01-05T10:05:42.512Z,23.03
2019-01-05T10:12:04.031Z,20.67
2019-01-05T10:15:12.940Z,20.77
2019-01-05T10:18:21.119Z,20.17
2019-01-05T10:21:30.400Z,16.17
2019-01-05T10:24:35.664Z,15.53
2019-01-05T10:27:37.631Z,9.60
2019-01-05T10:30:45.720Z,9.97
2019-01-05T10:33:48.799Z,9.90
2019-01-05T10:37:02.656Z,7.90
2019-01-05T10:40:18.241Z,8.93
2019-01-05T10:43:32.311Z,9.50
2019-01-05T10:46:58.432Z,6.77
2019-01-05T10:50:17.920Z,9.37
2019-01-05T10:57:04.432Z,7.80
2019-01-05T11:00:38.639Z,9.33
2019-01-05T11:03:58.016Z,7.87
2019-01-05T11:06:59.791Z,8.03
2019-01-05T11:10:08.311Z,8.93
2019-01-05T11:13:16.832Z,7.53
2019-01-05T11:16:17.072Z,6.40
2019-01-05T11:19:13.513Z,7.50
2019-01-05T11:22:18.717Z,7.43
2019-01-05T11:25:26.720Z,5.47
2019-01-05T11:28:27.960Z,5.63
2019-01-05T11:31:35.456Z,8.60
2019-01-05T11:34:42.872Z,7.50
2019-01-05T11:37:49.851Z,9.00
2019-01-05T11:40:57.935Z,8.57
2019-01-05T11:44:05.997Z,6.67
2019-01-05T11:47:15.104Z,6.97
2019-01-05T11:50:09.780Z,7.13
2019-01-05T11:53:17.395Z,12.37
2019-01-05T11:56:25.204Z,8.73
2019-01-05T11:59:33.189Z,8.23
2019-01-05T12:02:35.071Z,7.17
2019-01-05T12:05:42.759Z,10.20
2019-01-05T12:08:50.959Z,11.97
2019-01-05T12:11:58.088Z,8.57
2019-01-05T12:15:04.736Z,10.40
2019-01-05T12:18:14.071Z,10.33
2019-01-05T12:21:21.872Z,9.37
2019-01-05T12:24:29.682Z,9.60
2019-01-05T12:27:33.163Z,10.30
2019-01-05T12:30:40.776Z,12.83
2019-01-05T12:33:48.671Z,10.17
2019-01-05T12:36:56.392Z,8.10
2019-01-05T12:40:03.655Z,9.33
2019-01-05T12:43:08.184Z,10.93
2019-01-05T12:46:15.780Z,8.03
2019-01-05T12:49:24.032Z,11.30
2019-01-05T12:52:31.719Z,10.43
2019-01-05T12:55:39.431Z,6.03
2019-01-05T12:58:46.880Z,7.50
2019-01-05T13:01:54.832Z,9.47
2019-01-05T13:05:03.233Z,11.07
2019-01-05T13:08:04.591Z,10.10
2019-01-05T13:11:12.071Z,13.03
2019-01-05T13:14:13.111Z,9.27
2019-01-05T13:17:19.479Z,10.30
2019-01-05T13:20:26.960Z,11.07
2019-01-05T13:23:29.951Z,12.20
2019-01-05T13:26:37.849Z,11.93
2019-01-05T13:29:45.478Z,14.53
2019-01-05T13:32:46.907Z,12.83
2019-01-05T13:35:54.295Z,18.67
2019-01-05T13:38:58.719Z,11.87
2019-01-05T13:42:00.631Z,14.73
2019-01-05T13:45:04.836Z,10.60
2019-01-05T13:48:14.659Z,11.93
2019-01-05T13:51:22.455Z,10.83
2019-01-05T13:54:12.951Z,11.63
2019-01-05T13:57:03.760Z,16.87
2019-01-05T13:59:44.831Z,20.27
2019-01-05T14:02:33.711Z,16.10
2019-01-05T14:05:22.551Z,16.70
2019-01-05T14:08:11.312Z,13.47
2019-01-05T14:10:59.991Z,20.30
2019-01-05T14:13:48.951Z,24.60
2019-01-05T14:16:37.791Z,20.00
2019-01-05T14:19:26.871Z,23.07
2019-01-05T14:43:36.431Z,29.90
2019-01-05T14:46:25.711Z,20.30
2019-01-05T14:49:14.473Z,24.03
2019-01-05T14:52:04.431Z,29.67
2019-01-05T14:54:53.382Z,35.30
2019-01-05T14:57:42.672Z,31.00
2019-01-05T15:00:31.720Z,34.23
2019-01-05T15:03:21.799Z,30.83
2019-01-05T15:06:11.592Z,26.23
2019-01-05T15:12:07.635Z,32.57
2019-01-05T15:14:49.952Z,29.83
2019-01-05T15:17:40.959Z,29.43
2019-01-05T15:20:31.271Z,34.97
2019-01-05T15:23:16.640Z,38.50
2019-01-05T15:26:06.391Z,25.90
2019-01-05T15:28:55.871Z,26.57
2019-01-05T15:31:45.751Z,26.87
2019-01-05T15:34:33.072Z,29.10
2019-01-05T15:37:22.433Z,26.37
2019-01-05T15:40:11.922Z,30.60
2019-01-05T15:43:01.312Z,26.93
2019-01-05T15:45:50.079Z,28.50
2019-01-05T15:48:39.831Z,28.73
2019-01-05T15:51:29.517Z,26.17
2019-01-05T15:54:18.991Z,27.00
2019-01-05T15:57:08.850Z,28.17
2019-01-05T15:59:58.951Z,37.80
2019-01-05T16:02:48.632Z,40.80
2019-01-05T16:05:40.328Z,37.20
2019-01-05T16:08:29.912Z,45.90
2019-01-05T16:11:24.512Z,53.37
2019-01-05T16:14:17.591Z,43.43
2019-01-05T16:17:07.151Z,45.37
2019-01-05T16:19:56.199Z,50.40
2019-01-05T16:22:45.078Z,56.17
2019-01-05T16:25:37.911Z,66.63
2019-01-05T16:28:28.312Z,77.13
2019-01-05T16:31:17.912Z,67.27
2019-01-05T16:34:06.951Z,61.40
2019-01-05T16:36:55.912Z,50.57
2019-01-05T16:39:44.791Z,54.03
2019-01-05T16:42:34.080Z,42.37
2019-01-05T16:45:23.423Z,40.73
2019-01-05T16:48:11.951Z,37.97
2019-01-05T16:50:56.416Z,40.17
2019-01-05T16:53:45.461Z,42.87
2019-01-05T16:56:34.433Z,49.57
2019-01-05T16:59:23.679Z,47.33
2019-01-05T17:02:12.751Z,42.63
2019-01-05T17:05:01.825Z,41.97
2019-01-05T17:07:37.996Z,39.33
2019-01-05T17:10:27.439Z,38.27
2019-01-05T17:13:16.951Z,43.87
2019-01-05T17:15:59.115Z,37.83
2019-01-05T17:18:46.960Z,35.63
2019-01-05T17:21:36.471Z,41.93
2019-01-05T17:24:25.512Z,38.87
2019-01-05T17:27:15.153Z,34.53
2019-01-05T17:30:04.992Z,34.13
2019-01-05T17:32:55.068Z,35.80
2019-01-05T17:35:44.412Z,34.10
2019-01-05T17:38:33.879Z,28.70
2019-01-05T17:41:23.968Z,30.53
2019-01-05T17:44:13.751Z,28.43
2019-01-05T17:47:03.881Z,30.27
2019-01-05T17:50:00.776Z,33.57
2019-01-05T17:56:07.111Z,24.30
2019-01-05T17:59:05.781Z,32.57
2019-01-05T18:01:50.378Z,27.87
2019-01-05T18:04:39.994Z,22.63
2019-01-05T18:07:29.872Z,21.80
2019-01-05T18:10:19.755Z,20.10
2019-01-05T18:13:09.774Z,18.13
2019-01-05T18:15:59.249Z,16.17
2019-01-05T18:18:46.032Z,16.30
2019-01-05T18:21:36.919Z,20.90
2019-01-05T18:24:23.856Z,18.97
2019-01-05T18:27:16.215Z,17.43
2019-01-05T18:30:07.385Z,18.90
2019-01-05T18:33:07.956Z,45.27
2019-01-05T18:36:17.610Z,13.43
2019-01-05T18:39:06.871Z,19.23
2019-01-05T18:42:02.448Z,18.50
2019-01-05T18:44:54.481Z,24.27
2019-01-05T18:47:48.384Z,21.30
2019-01-05T18:50:35.083Z,19.67
2019-01-05T18:56:49.031Z,19.57
2019-01-05T18:59:40.586Z,21.60
2019-01-05T19:02:29.735Z,20.37
2019-01-05T19:05:20.929Z,21.90
2019-01-05T19:08:13.393Z,26.07
2019-01-05T19:11:03.711Z,25.10
2019-01-05T19:13:52.940Z,17.43
2019-01-05T19:16:41.986Z,19.30
2019-01-05T19:19:32.004Z,20.63
2019-01-05T19:22:21.368Z,14.77
2019-01-05T19:25:10.300Z,14.30
2019-01-05T19:27:51.503Z,19.13
2019-01-05T19:30:40.498Z,16.03
2019-01-05T19:33:29.447Z,14.23
2019-01-05T19:36:13.663Z,14.13
2019-01-05T19:39:03.447Z,17.93
2019-01-05T19:41:52.501Z,18.83
2019-01-05T19:44:41.672Z,17.17
2019-01-05T19:47:30.455Z,15.10
2019-01-05T19:50:20.080Z,14.40
2019-01-05T19:53:08.751Z,14.40
2019-01-05T19:55:57.512Z,18.47
2019-01-05T19:58:46.689Z,17.47
2019-01-05T20:01:36.061Z,18.70
2019-01-05T20:04:25.751Z,18.20
2019-01-05T20:07:15.392Z,18.00
2019-01-05T20:10:04.760Z,21.00
2019-01-05T20:12:54.441Z,13.93
2019-01-05T20:15:43.821Z,13.73
2019-01-05T20:18:32.871Z,15.57
2019-01-05T20:21:20.817Z,17.13
2019-01-05T20:24:10.600Z,15.63
2019-01-05T20:27:01.316Z,17.30
2019-01-05T20:29:51.392Z,18.40
2019-01-05T20:32:40.740Z,19.83
2019-01-05T20:35:30.754Z,15.73
2019-01-05T20:38:21.443Z,15.10
2019-01-05T20:41:13.359Z,14.40
2019-01-05T20:44:03.960Z,17.73
2019-01-05T20:46:53.639Z,24.03
2019-01-05T20:49:43.034Z,48.97
2019-01-05T20:52:32.600Z,16.53
2019-01-05T20:55:18.591Z,11.90
2019-01-05T20:58:07.886Z,12.20
2019-01-05T21:00:57.231Z,11.47
2019-01-05T21:03:47.071Z,11.33
2019-01-05T21:06:36.791Z,13.20
2019-01-05T21:09:26.474Z,17.83
2019-01-05T21:12:15.821Z,11.47
2019-01-05T21:15:06.553Z,15.27
2019-01-05T21:17:56.060Z,12.63
2019-01-05T21:20:48.040Z,15.23
2019-01-05T21:23:37.306Z,11.87
2019-01-05T21:26:26.872Z,16.90
2019-01-05T21:29:16.879Z,13.23
2019-01-05T21:32:09.501Z,8.93
2019-01-05T21:35:02.072Z,8.50
2019-01-05T21:37:52.864Z,10.80
2019-01-05T21:40:44.296Z,6.53
2019-01-05T21:43:30.375Z,10.33
2019-01-05T21:46:19.848Z,8.53
2019-01-05T21:49:08.792Z,4.33
2019-01-05T21:51:57.452Z,6.80
2019-01-05T21:54:40.459Z,7.47
2019-01-05T21:57:25.844Z,5.40
2019-01-05T22:00:15.224Z,5.80
2019-01-05T22:03:04.784Z,5.50
2019-01-05T22:05:53.751Z,7.20
2019-01-05T22:08:43.274Z,6.77
2019-01-05T22:11:32.280Z,5.20
2019-01-05T22:14:21.460Z,5.47
2019-01-05T22:17:10.819Z,6.97
2019-01-05T22:20:00.296Z,10.70
2019-01-05T22:22:50.071Z,10.43
2019-01-05T22:25:39.953Z,10.27
2019-01-05T22:28:30.079Z,13.57
2019-01-05T22:31:19.307Z,9.90
2019-01-05T22:34:08.989Z,11.97
2019-01-05T22:36:57.943Z,13.80
2019-01-05T22:39:47.320Z,12.43
2019-01-05T22:42:32.696Z,17.17
2019-01-05T22:45:22.061Z,10.63
2019-01-05T22:48:11.891Z,12.63
2019-01-05T22:51:01.332Z,11.70
2019-01-05T22:53:50.991Z,10.73
2019-01-05T22:56:40.783Z,11.23
2019-01-05T22:59:29.939Z,11.40
2019-01-05T23:02:17.872Z,9.10
2019-01-05T23:05:07.768Z,9.73
2019-01-05T23:07:56.924Z,10.80
2019-01-05T23:10:45.786Z,12.80
2019-01-05T23:13:35.575Z,12.27
2019-01-05T23:16:24.902Z,12.73
2019-01-05T23:19:14.919Z,10.40
2019-01-05T23:22:06.079Z,14.40
2019-01-05T23:24:50.492Z,9.97
2019-01-05T23:27:40.879Z,11.23
2019-01-05T23:30:31.179Z,16.37
2019-01-05T23:33:20.649Z,16.60
2019-01-05T23:36:10.432Z,14.53
2019-01-05T23:39:00.407Z,12.20
2019-01-05T23:41:49.768Z,10.10
2019-01-05T23:44:39.560Z,10.67
2019-01-05T23:47:28.840Z,9.83
2019-01-05T23:50:18.700Z,8.37
2019-01-05T23:53:07.780Z,8.93
2019-01-05T23:55:57.547Z,5.57
2019-01-05T23:58:48.048Z,9.20
